createdAt,value
2019-05-14T00:01:42.259Z,62.81
2019-05-14T00:04:11.741Z,62.17
2019-05-14T00:06:41.839Z,62.91
2019-05-14T00:09:12.129Z,62.10
2019-05-14T00:11:42.333Z,61.65
2019-05-14T00:14:12.283Z,61.30
2019-05-14T00:16:42.391Z,61.61
2019-05-14T00:19:11.954Z,61.44
2019-05-14T00:21:42.312Z,63.04
2019-05-14T00:24:12.251Z,62.49
2019-05-14T00:26:42.544Z,62.51
2019-05-14T00:29:11.854Z,63.26
2019-05-14T00:31:42.523Z,63.47
2019-05-14T00:34:11.296Z,62.00
2019-05-14T00:36:42.169Z,63.63
2019-05-14T00:39:11.524Z,64.35
2019-05-14T00:41:41.964Z,62.69
2019-05-14T00:44:32.338Z,63.44
2019-05-14T00:47:02.155Z,64.08
2019-05-14T00:49:31.850Z,65.37
2019-05-14T00:52:02.299Z,64.24
2019-05-14T00:54:52.235Z,65.48
2019-05-14T00:57:22.540Z,65.62
2019-05-14T00:59:52.123Z,65.93
2019-05-14T01:02:22.443Z,66.48
2019-05-14T01:04:51.551Z,63.95
2019-05-14T01:07:42.354Z,61.58
2019-05-14T01:10:51.452Z,61.17
2019-05-14T01:13:21.909Z,65.87
2019-05-14T01:16:11.976Z,65.22
2019-05-14T01:18:41.730Z,64.12
2019-05-14T01:21:11.792Z,63.60
2019-05-14T01:26:52.240Z,64.34
2019-05-14T01:29:21.921Z,64.93
2019-05-14T01:35:01.378Z,65.96
2019-05-14T01:37:31.232Z,62.55
2019-05-14T01:40:01.144Z,64.36
2019-05-14T01:42:32.071Z,63.11
2019-05-14T01:45:27.251Z,64.24
2019-05-14T01:47:52.074Z,66.55
2019-05-14T01:50:22.555Z,67.74
2019-05-14T01:52:52.175Z,68.05
2019-05-14T01:55:22.827Z,67.13
2019-05-14T01:57:51.986Z,69.48
2019-05-14T02:00:22.025Z,67.92
2019-05-14T02:02:52.451Z,70.16
2019-05-14T02:05:22.890Z,69.42
2019-05-14T02:08:12.123Z,70.61
2019-05-14T02:11:01.624Z,71.13
2019-05-14T02:13:32.349Z,71.47
2019-05-14T02:16:02.232Z,70.60
2019-05-14T02:18:33.003Z,70.62
2019-05-14T02:21:22.947Z,71.49
2019-05-14T02:23:53.465Z,70.18
2019-05-14T02:26:42.463Z,69.73
2019-05-14T02:29:12.483Z,67.19
2019-05-14T02:31:42.626Z,67.25
2019-05-14T02:36:49.417Z,68.27
2019-05-14T02:39:19.637Z,70.13
2019-05-14T02:41:49.984Z,71.09
2019-05-14T02:47:12.816Z,71.49
2019-05-14T02:49:41.480Z,70.95
2019-05-14T02:54:45.430Z,71.79
2019-05-14T02:57:14.289Z,71.82
2019-05-14T02:59:43.596Z,72.11
2019-05-14T03:02:32.194Z,72.39
2019-05-14T03:07:50.582Z,72.03
2019-05-14T03:10:19.985Z,72.53
2019-05-14T03:13:09.568Z,72.76
2019-05-14T03:15:39.571Z,74.42
2019-05-14T03:18:09.196Z,74.17
2019-05-14T03:20:39.228Z,75.33
2019-05-14T03:23:15.635Z,74.83
2019-05-14T03:25:40.331Z,76.06
2019-05-14T03:28:09.590Z,69.46
2019-05-14T03:30:42.387Z,72.40
2019-05-14T03:33:13.246Z,68.80
2019-05-14T03:36:08.223Z,66.88
2019-05-14T03:38:30.486Z,66.44
2019-05-14T03:41:00.653Z,67.85
2019-05-14T03:44:10.719Z,67.13
2019-05-14T03:46:49.738Z,69.46
2019-05-14T03:49:10.701Z,70.59
2019-05-14T03:51:39.690Z,72.66
2019-05-14T03:54:12.638Z,72.75
2019-05-14T03:56:40.104Z,74.09
2019-05-14T03:59:09.847Z,74.30
2019-05-14T04:01:40.475Z,74.64
2019-05-14T04:04:30.946Z,75.56
2019-05-14T04:07:39.588Z,75.67
2019-05-14T04:10:10.277Z,76.64
2019-05-14T04:13:19.957Z,75.73
2019-05-14T04:16:09.575Z,75.69
2019-05-14T04:22:12.319Z,76.94
2019-05-14T04:25:21.149Z,77.62
2019-05-14T04:28:30.073Z,78.12
2019-05-14T04:31:00.552Z,77.37
2019-05-14T04:33:30.692Z,77.60
2019-05-14T04:36:00.912Z,76.79
2019-05-14T04:38:30.454Z,75.29
2019-05-14T04:41:00.265Z,74.92
2019-05-14T04:46:20.065Z,73.33
2019-05-14T04:48:50.935Z,72.10
2019-05-14T04:51:20.306Z,73.55
2019-05-14T04:53:50.177Z,74.42
2019-05-14T04:56:19.915Z,74.17
2019-05-14T04:58:50.527Z,70.67
2019-05-14T05:01:21.085Z,69.83
2019-05-14T05:06:39.835Z,70.25
2019-05-14T05:09:50.171Z,70.27
2019-05-14T05:12:19.989Z,69.05
2019-05-14T05:14:49.441Z,71.24
2019-05-14T05:17:19.755Z,70.07
2019-05-14T05:19:51.537Z,70.67
2019-05-14T05:22:19.905Z,69.51
2019-05-14T05:27:38.323Z,66.67
2019-05-14T05:30:49.067Z,66.71
2019-05-14T05:33:18.742Z,66.54
2019-05-14T05:35:48.728Z,65.35
2019-05-14T05:38:18.401Z,64.97
2019-05-14T05:40:48.605Z,64.63
2019-05-14T05:43:19.185Z,63.08
2019-05-14T05:45:48.667Z,62.21
2019-05-14T05:51:13.300Z,62.76
2019-05-14T05:53:41.896Z,62.85
2019-05-14T05:56:10.533Z,61.79
2019-05-14T05:58:39.874Z,61.43
2019-05-14T06:01:09.920Z,61.24
2019-05-14T06:03:39.822Z,61.67
2019-05-14T06:06:13.380Z,60.62
2019-05-14T06:08:39.056Z,61.73
2019-05-14T06:11:08.402Z,62.00
2019-05-14T06:13:39.132Z,61.37
2019-05-14T06:16:09.573Z,61.47
2019-05-14T06:18:39.454Z,60.96
2019-05-14T06:21:09.385Z,59.88
2019-05-14T06:23:39.432Z,61.61
2019-05-14T06:26:11.602Z,60.64
2019-05-14T06:28:40.767Z,59.67
2019-05-14T06:31:09.947Z,60.54
2019-05-14T06:33:39.660Z,60.19
2019-05-14T06:36:49.412Z,60.55
2019-05-14T06:39:18.366Z,59.88
2019-05-14T06:41:49.059Z,59.40
2019-05-14T06:44:18.935Z,58.63
2019-05-14T06:46:48.730Z,56.38
2019-05-14T06:49:18.310Z,54.37
2019-05-14T06:51:49.045Z,49.91
2019-05-14T06:54:19.611Z,44.83
2019-05-14T06:56:49.174Z,39.77
2019-05-14T06:59:18.286Z,36.96
2019-05-14T07:01:49.003Z,34.89
2019-05-14T07:04:18.534Z,32.68
2019-05-14T07:06:48.525Z,31.11
2019-05-14T07:09:18.457Z,28.97
2019-05-14T07:11:49.116Z,28.97
2019-05-14T07:14:18.937Z,29.75
2019-05-14T07:16:48.893Z,28.78
2019-05-14T07:19:19.231Z,28.46
2019-05-14T07:22:08.937Z,32.31
2019-05-14T07:24:40.436Z,30.02
2019-05-14T07:27:09.390Z,27.65
2019-05-14T07:29:38.882Z,28.91
2019-05-14T07:32:09.185Z,28.82
2019-05-14T07:34:39.134Z,28.69
2019-05-14T07:37:09.423Z,28.17
2019-05-14T07:39:58.027Z,28.05
2019-05-14T07:42:28.945Z,28.96
2019-05-14T07:44:58.893Z,28.60
2019-05-14T07:47:29.229Z,30.47
2019-05-14T07:49:59.234Z,27.74
2019-05-14T07:52:28.502Z,29.76
2019-05-14T07:54:58.763Z,29.68
2019-05-14T07:57:28.705Z,30.09
2019-05-14T07:59:58.821Z,28.64
2019-05-14T08:02:29.038Z,30.45
2019-05-14T08:04:58.142Z,30.79
2019-05-14T08:07:48.154Z,29.65
2019-05-14T08:10:18.586Z,29.21
2019-05-14T08:12:48.656Z,28.88
2019-05-14T08:15:58.577Z,27.87
2019-05-14T08:18:29.107Z,28.88
2019-05-14T08:20:59.161Z,30.38
2019-05-14T08:23:28.347Z,30.15
2019-05-14T08:25:58.832Z,31.08
2019-05-14T08:28:29.140Z,31.16
2019-05-14T08:30:59.219Z,33.22
2019-05-14T08:33:29.014Z,34.31
2019-05-14T08:35:58.403Z,35.08
2019-05-14T08:38:28.624Z,35.83
2019-05-14T08:40:58.894Z,37.74
2019-05-14T08:43:29.105Z,39.23
2019-05-14T08:45:58.690Z,39.96
2019-05-14T08:48:29.573Z,40.41
2019-05-14T08:50:58.900Z,42.37
2019-05-14T08:53:28.807Z,41.91
2019-05-14T08:55:58.855Z,42.26
2019-05-14T08:58:30.120Z,40.20
2019-05-14T09:00:58.924Z,40.75
2019-05-14T09:04:09.139Z,39.16
2019-05-14T09:06:58.470Z,39.56
2019-05-14T09:09:29.041Z,41.18
2019-05-14T09:11:59.714Z,41.41
2019-05-14T09:14:28.242Z,41.29
2019-05-14T09:16:59.879Z,40.19
2019-05-14T09:19:28.880Z,39.33
2019-05-14T09:21:58.840Z,37.90
2019-05-14T09:24:29.070Z,37.54
2019-05-14T09:26:59.195Z,39.49
2019-05-14T09:29:29.758Z,37.50
2019-05-14T09:31:59.347Z,37.00
2019-05-14T09:34:29.344Z,35.43
2019-05-14T09:36:59.414Z,36.10
2019-05-14T09:39:48.838Z,34.56
2019-05-14T09:42:19.455Z,35.52
2019-05-14T09:44:49.074Z,36.16
2019-05-14T09:47:19.081Z,35.15
2019-05-14T09:49:49.280Z,36.24
2019-05-14T09:52:18.667Z,36.57
2019-05-14T09:54:49.621Z,36.90
2019-05-14T09:57:19.049Z,37.82
2019-05-14T09:59:49.099Z,36.75
2019-05-14T10:02:17.721Z,37.22
2019-05-14T10:04:48.982Z,36.84
2019-05-14T10:07:16.957Z,38.27
2019-05-14T10:09:45.589Z,37.81
2019-05-14T10:12:14.264Z,35.46
2019-05-14T10:14:42.822Z,35.70
2019-05-14T10:17:11.513Z,37.67
2019-05-14T10:19:40.085Z,36.73
2019-05-14T10:22:08.775Z,37.17
2019-05-14T10:24:38.657Z,36.07
2019-05-14T10:27:08.945Z,36.50
2019-05-14T10:29:39.467Z,34.18
2019-05-14T10:32:09.063Z,34.03
2019-05-14T10:34:37.725Z,32.88
2019-05-14T10:37:08.665Z,34.98
2019-05-14T10:39:39.084Z,32.20
2019-05-14T10:42:08.853Z,32.31
2019-05-14T10:44:38.732Z,32.29
2019-05-14T10:47:29.231Z,33.48
2019-05-14T10:49:59.000Z,34.14
2019-05-14T10:52:28.898Z,33.88
2019-05-14T10:54:59.035Z,34.13
2019-05-14T10:57:28.958Z,35.35
2019-05-14T10:59:59.114Z,33.09
2019-05-14T11:02:29.315Z,34.48
2019-05-14T11:04:59.487Z,35.97
2019-05-14T11:07:29.272Z,34.50
2019-05-14T11:09:58.349Z,31.40
2019-05-14T11:12:29.549Z,31.27
2019-05-14T11:14:57.440Z,32.10
2019-05-14T11:17:28.860Z,33.05
2019-05-14T11:19:58.547Z,31.60
2019-05-14T11:22:28.889Z,31.24
2019-05-14T11:24:59.155Z,32.76
2019-05-14T11:27:29.247Z,31.49
2019-05-14T11:29:58.662Z,30.59
2019-05-14T11:32:29.130Z,32.11
2019-05-14T11:34:59.212Z,31.79
2019-05-14T11:37:29.078Z,30.86
2019-05-14T11:39:58.168Z,31.51
2019-05-14T11:42:31.376Z,31.47
2019-05-14T11:44:58.680Z,30.96
2019-05-14T11:47:27.275Z,31.14
2019-05-14T11:49:59.016Z,32.39
2019-05-14T11:52:28.622Z,31.79
2019-05-14T11:54:58.491Z,31.25
2019-05-14T11:57:27.012Z,33.73
2019-05-14T11:59:58.003Z,33.38
2019-05-14T12:02:26.115Z,31.09
2019-05-14T12:04:54.738Z,31.14
2019-05-14T12:07:23.376Z,31.05
2019-05-14T12:09:52.459Z,28.86
2019-05-14T12:12:22.471Z,30.98
2019-05-14T12:14:51.115Z,29.25
2019-05-14T12:17:19.794Z,31.00
2019-05-14T12:19:48.651Z,32.08
2019-05-14T12:22:19.257Z,33.19
2019-05-14T12:24:49.648Z,33.91
2019-05-14T12:27:19.660Z,33.19
2019-05-14T12:29:49.837Z,33.42
2019-05-14T12:32:19.058Z,33.63
2019-05-14T12:34:49.142Z,34.81
2019-05-14T12:37:18.622Z,31.95
2019-05-14T12:39:48.100Z,31.44
2019-05-14T12:42:19.260Z,31.52
2019-05-14T12:44:47.166Z,30.99
2019-05-14T12:47:18.597Z,33.56
2019-05-14T12:49:48.160Z,32.30
2019-05-14T12:52:25.328Z,32.45
2019-05-14T12:54:46.957Z,32.03
2019-05-14T12:57:15.680Z,30.73
2019-05-14T12:59:44.356Z,31.82
2019-05-14T13:02:13.051Z,31.90
2019-05-14T13:04:41.688Z,32.76
2019-05-14T13:07:10.365Z,30.79
2019-05-14T13:09:38.923Z,32.92
2019-05-14T13:12:11.311Z,31.29
2019-05-14T13:14:39.430Z,29.46
2019-05-14T13:17:09.280Z,28.82
2019-05-14T13:19:38.932Z,29.96
2019-05-14T13:22:13.652Z,28.89
2019-05-14T13:24:39.438Z,30.31
2019-05-14T13:27:09.475Z,28.39
2019-05-14T13:29:38.825Z,30.13
2019-05-14T13:32:12.010Z,28.12
2019-05-14T13:34:39.599Z,28.81
2019-05-14T13:37:08.217Z,27.03
2019-05-14T13:40:20.811Z,29.41
2019-05-14T13:42:49.187Z,30.18
2019-05-14T13:48:12.323Z,30.66
2019-05-14T13:50:41.091Z,31.81
2019-05-14T13:53:12.866Z,31.19
2019-05-14T13:55:46.927Z,29.73
2019-05-14T13:58:10.458Z,30.05
2019-05-14T14:00:39.141Z,30.24
2019-05-14T14:03:10.032Z,30.94
2019-05-14T14:05:39.327Z,31.75
2019-05-14T14:08:08.911Z,33.05
2019-05-14T14:10:45.031Z,33.63
2019-05-14T14:13:11.312Z,33.96
2019-05-14T14:15:39.746Z,32.84
2019-05-14T14:18:08.438Z,33.82
2019-05-14T14:20:39.271Z,30.96
2019-05-14T14:23:18.966Z,32.76
2019-05-14T14:25:39.489Z,30.03
2019-05-14T14:28:09.914Z,31.54
2019-05-14T14:33:48.729Z,30.12
2019-05-14T14:36:19.610Z,29.37
2019-05-14T14:38:49.457Z,30.24
2019-05-14T14:41:19.350Z,32.50
2019-05-14T14:43:53.451Z,34.34
2019-05-14T14:46:19.591Z,34.66
2019-05-14T14:48:49.579Z,32.83
2019-05-14T14:51:19.668Z,34.53
2019-05-14T14:53:59.067Z,34.78
2019-05-14T14:56:20.142Z,31.12
2019-05-14T14:58:49.490Z,30.90
2019-05-14T15:01:19.950Z,31.28
2019-05-14T15:03:50.783Z,30.85
2019-05-14T15:06:19.934Z,30.49
2019-05-14T15:08:49.696Z,33.17
2019-05-14T15:11:19.041Z,32.53
2019-05-14T15:13:48.309Z,31.07
2019-05-14T15:16:20.081Z,33.55
2019-05-14T15:18:49.703Z,32.30
2019-05-14T15:21:19.300Z,31.61
2019-05-14T15:24:05.928Z,31.55
2019-05-14T15:26:19.582Z,31.58
2019-05-14T15:28:49.490Z,30.66
2019-05-14T15:31:19.165Z,30.56
2019-05-14T15:33:51.027Z,32.14
2019-05-14T15:36:41.341Z,31.17
2019-05-14T15:39:49.182Z,31.96
2019-05-14T15:42:19.377Z,31.73
2019-05-14T15:44:55.749Z,33.09
2019-05-14T15:47:19.789Z,33.37
2019-05-14T15:49:48.996Z,33.32
2019-05-14T15:52:19.373Z,33.86
2019-05-14T15:54:50.575Z,32.83
2019-05-14T15:57:19.602Z,33.43
2019-05-14T15:59:48.218Z,34.81
2019-05-14T16:02:19.882Z,34.49
2019-05-14T16:04:47.244Z,34.34
2019-05-14T16:07:18.473Z,36.36
2019-05-14T16:09:49.109Z,35.31
2019-05-14T16:12:19.613Z,35.52
2019-05-14T16:14:48.898Z,34.22
2019-05-14T16:17:24.329Z,33.87
2019-05-14T16:19:48.754Z,34.25
2019-05-14T16:22:19.451Z,34.00
2019-05-14T16:24:56.394Z,33.89
2019-05-14T16:27:19.766Z,36.18
2019-05-14T16:29:49.490Z,36.69
2019-05-14T16:32:18.275Z,36.49
2019-05-14T16:34:48.889Z,36.16
2019-05-14T16:37:18.209Z,34.35
2019-05-14T16:39:48.839Z,34.37
2019-05-14T16:42:20.586Z,32.94
2019-05-14T16:44:48.566Z,33.72
2019-05-14T16:47:18.821Z,33.40
2019-05-14T16:49:48.232Z,34.87
2019-05-14T16:52:18.199Z,33.62
2019-05-14T16:54:48.788Z,33.85
2019-05-14T16:57:18.607Z,35.78
2019-05-14T16:59:49.683Z,36.13
2019-05-14T17:02:19.149Z,36.76
2019-05-14T17:04:48.473Z,36.76
2019-05-14T17:07:18.236Z,37.53
2019-05-14T17:09:49.375Z,38.35
2019-05-14T17:12:22.110Z,38.95
2019-05-14T17:14:48.301Z,38.05
2019-05-14T17:17:16.937Z,38.39
2019-05-14T17:19:47.947Z,38.60
2019-05-14T17:22:27.692Z,37.33
2019-05-14T17:24:48.885Z,38.51
2019-05-14T17:27:16.741Z,38.42
2019-05-14T17:29:45.379Z,37.91
2019-05-14T17:32:14.034Z,37.79
2019-05-14T17:34:42.634Z,37.35
2019-05-14T17:37:30.577Z,37.28
2019-05-14T17:39:59.246Z,37.80
2019-05-14T17:42:28.513Z,37.39
2019-05-14T17:44:58.921Z,37.23
2019-05-14T17:47:49.100Z,37.18
2019-05-14T17:50:18.522Z,37.55
2019-05-14T17:52:55.312Z,37.89
2019-05-14T17:55:18.751Z,37.33
2019-05-14T17:57:56.719Z,37.80
2019-05-14T18:00:58.284Z,37.72
2019-05-14T18:03:29.048Z,37.45
2019-05-14T18:05:58.103Z,38.53
2019-05-14T18:08:30.006Z,38.30
2019-05-14T18:11:01.083Z,39.34
2019-05-14T18:13:28.447Z,39.20
2019-05-14T18:15:58.074Z,39.54
2019-05-14T18:18:29.119Z,39.76
2019-05-14T18:20:58.269Z,39.96
2019-05-14T18:23:28.950Z,41.46
2019-05-14T18:26:08.092Z,41.46
2019-05-14T18:28:28.964Z,41.62
2019-05-14T18:30:58.751Z,42.21
2019-05-14T18:33:31.208Z,42.92
2019-05-14T18:35:59.018Z,42.82
2019-05-14T18:38:29.116Z,43.39
2019-05-14T18:40:58.637Z,44.74
2019-05-14T18:43:28.930Z,44.38
2019-05-14T18:45:58.811Z,47.19
2019-05-14T18:48:29.190Z,45.25
2019-05-14T18:50:59.280Z,45.47
2019-05-14T18:53:28.259Z,46.21
2019-05-14T18:55:59.494Z,46.16
2019-05-14T18:58:29.306Z,47.09
2019-05-14T19:00:58.593Z,47.41
2019-05-14T19:03:28.686Z,47.41
2019-05-14T19:05:58.803Z,47.72
2019-05-14T19:08:29.053Z,48.98
2019-05-14T19:10:59.322Z,49.18
2019-05-14T19:13:28.250Z,49.33
2019-05-14T19:15:59.220Z,49.50
2019-05-14T19:18:28.911Z,50.01
2019-05-14T19:20:59.195Z,50.85
2019-05-14T19:23:28.945Z,51.24
2019-05-14T19:25:59.138Z,51.62
2019-05-14T19:28:28.843Z,52.12
2019-05-14T19:30:59.622Z,53.05
2019-05-14T19:33:28.702Z,53.68
2019-05-14T19:35:58.447Z,54.88
2019-05-14T19:38:27.083Z,54.83
2019-05-14T19:41:02.632Z,55.15
2019-05-14T19:43:31.387Z,55.54
2019-05-14T19:46:00.035Z,56.17
2019-05-14T19:48:32.656Z,56.29
2019-05-14T19:51:18.808Z,56.95
2019-05-14T19:53:52.302Z,56.72
2019-05-14T19:56:19.165Z,57.28
2019-05-14T19:58:48.575Z,58.47
2019-05-14T20:01:19.444Z,58.29
2019-05-14T20:04:09.570Z,57.93
2019-05-14T20:06:39.075Z,58.34
2019-05-14T20:09:48.317Z,58.65
2019-05-14T20:12:18.327Z,58.73
2019-05-14T20:14:49.049Z,60.32
2019-05-14T20:17:19.386Z,60.53
2019-05-14T20:19:49.386Z,61.05
2019-05-14T20:22:19.293Z,60.38
2019-05-14T20:24:48.399Z,59.95
2019-05-14T20:27:58.792Z,61.06
2019-05-14T20:30:29.476Z,61.42
2019-05-14T20:32:59.407Z,61.93
2019-05-14T20:35:34.641Z,62.06
2019-05-14T20:37:59.848Z,62.98
2019-05-14T20:40:28.593Z,62.46
2019-05-14T20:42:58.929Z,62.51
2019-05-14T20:45:28.948Z,63.12
2019-05-14T20:47:58.668Z,62.74
2019-05-14T20:50:29.099Z,62.95
2019-05-14T20:52:59.356Z,63.02
2019-05-14T20:55:29.377Z,62.88
2019-05-14T20:57:58.728Z,62.72
2019-05-14T21:00:29.157Z,62.28
2019-05-14T21:02:59.544Z,63.10
2019-05-14T21:05:29.315Z,62.92
2019-05-14T21:07:58.981Z,63.83
2019-05-14T21:10:29.110Z,63.77
2019-05-14T21:12:58.986Z,63.52
2019-05-14T21:15:28.662Z,63.95
2019-05-14T21:17:59.674Z,64.90
2019-05-14T21:20:28.509Z,65.32
2019-05-14T21:22:58.774Z,64.52
2019-05-14T21:25:29.751Z,63.83
2019-05-14T21:27:59.358Z,64.37
2019-05-14T21:30:29.686Z,64.58
2019-05-14T21:33:00.318Z,65.11
2019-05-14T21:35:29.279Z,64.20
2019-05-14T21:37:59.679Z,63.91
2019-05-14T21:40:32.157Z,63.02
2019-05-14T21:43:00.014Z,64.36
2019-05-14T21:45:28.709Z,63.92
2019-05-14T21:47:59.478Z,63.78
2019-05-14T21:50:28.917Z,63.64
2019-05-14T21:53:19.072Z,64.40
2019-05-14T21:55:47.960Z,64.63
2019-05-14T21:58:19.541Z,65.81
2019-05-14T22:01:27.700Z,65.11
2019-05-14T22:03:59.154Z,66.08
2019-05-14T22:06:29.108Z,65.09
2019-05-14T22:08:59.166Z,65.83
2019-05-14T22:11:28.363Z,66.16
2019-05-14T22:13:58.297Z,65.48
2019-05-14T22:16:28.237Z,65.32
2019-05-14T22:18:59.349Z,66.79
2019-05-14T22:21:28.940Z,67.08
2019-05-14T22:23:59.205Z,66.63
2019-05-14T22:26:28.371Z,66.78
2019-05-14T22:28:58.700Z,66.68
2019-05-14T22:31:28.936Z,67.01
2019-05-14T22:33:58.333Z,67.69
2019-05-14T22:36:29.378Z,68.49
2019-05-14T22:38:58.575Z,70.50
2019-05-14T22:41:29.168Z,70.84
2019-05-14T22:44:00.000Z,70.81
2019-05-14T22:46:27.877Z,69.46
2019-05-14T22:48:58.680Z,70.93
2019-05-14T22:54:35.116Z,71.32
2019-05-14T22:57:03.761Z,72.72
2019-05-14T22:59:32.517Z,72.96
2019-05-14T23:02:01.366Z,72.63
2019-05-14T23:04:30.152Z,72.69
2019-05-14T23:06:58.974Z,73.36
2019-05-14T23:09:27.762Z,73.60
2019-05-14T23:11:58.794Z,74.09
2019-05-14T23:14:28.215Z,73.46
2019-05-14T23:16:58.037Z,73.37
2019-05-14T23:19:27.542Z,74.53
2019-05-14T23:22:18.119Z,73.22
2019-05-14T23:27:38.328Z,74.60
2019-05-14T23:30:06.632Z,74.44
2019-05-14T23:32:35.287Z,74.62
2019-05-14T23:35:24.852Z,75.47
2019-05-14T23:37:53.586Z,75.19
2019-05-14T23:41:02.247Z,75.00
2019-05-14T23:43:50.525Z,75.53
2019-05-14T23:46:20.084Z,75.58
2019-05-14T23:48:48.678Z,74.82
2019-05-14T23:51:18.231Z,75.20
2019-05-14T23:53:48.503Z,73.34
2019-05-14T23:56:19.412Z,74.26
2019-05-14T23:58:55.849Z,75.27
